Seldovia, AK

6:45 AM AKST on February 13, 2016 (GMT -0900)
Seldovia | | Change Station
CLOSE
Current Station
Airport
Location: Seldovia,
Elevation: 30 ft
Nearby Weather Stations

Elev 30 ft 59.44 °N, 151.70 °W | Updated 52 minutes ago

Overcast
Overcast
35 °F
Feels Like 35 °F
N
0
Wind Variable Wind from North

Today
High -- | Low -- °F
--% Chance of Precip.
Yesterday
High -- | Low -- °F
Precip. -- in
Pressure 29.36 in
Visibility 10.0 miles
Clouds Mostly Cloudy 4000 ft
Overcast 5000 ft
Dew Point 34 °F
Humidity 96%
Rainfall 0.03 in
Snow Depth Not available.
8:48 AM 5:54 PM
Waxing Crescent, 31% visible
METAR PASO 131453Z AUTO 00000KT 10SM BKN040 OVC050 02/01 A2935 RMK AO2 SLP940 60000 T00170011 51015 TSNO
Pressure 29.36 in
Visibility 10.0 miles
Clouds Mostly Cloudy 4000 ft
Overcast 5000 ft
Dew Point 34 °F
Humidity 96%
Rainfall 0.03 in
Snow Depth Not available.
8:48 AM 5:54 PM
Waxing Crescent, 31% visible
METAR PASO 131453Z AUTO 00000KT 10SM BKN040 OVC050 02/01 A2935 RMK AO2 SLP940 60000 T00170011 51015 TSNO

10-Day Weather Forecast

Almanac

Astronomy

Feb. 13, 2016 Rise Set
Actual Time
Civil Twilight
Nautical Twilight
Astronomical Twilight
Moon
Length of Visible Light
Length of Day
Tomorrow will be .
, % of the Moon is Illuminated

Today's Extremes

State Highs State Lows

Community

WunderPhotos

Upload Photos

1,892,587 photos uploaded!

WunderBlog® & News

Nearby

Air Quality

  Air Quality AQ Index Pollutant
Not available.

Snow Depth

Station Depth Elevation

Earthquake Activity

City Distance Mag. Time & Date
Minimum magnitude displayed is 2.5.

Coastal Water Temperatures

Place Temperature

Stations

Nearby Weather Stations

Station Location Temp. Windchill Dew Point Humidity Wind Precip. Elev Updated Type
                   

Watches & Warnings

There are currently no watches in effect.